Time;durP1;ratioP1;P1;durP2;ratioP2;P2;SDS_P1;SDS_P2;PMS_P1;PMS_P2;Temp;Humidity;BMP_temperature;BMP_pressure;BME280_temperature;BME280_humidity;BME280_pressure;Samples;Min_cycle;Max_cycle;Signal;HPM_P1;HPM_P2
2022/09/10 00:02:13;;;;;;;2.00;0.73;;;27.20;73.10;;;;;;5094281;28;20444;-84
2022/09/10 00:04:40;;;;;;;1.40;0.80;;;27.20;74.00;;;;;;5093684;28;20523;-85
2022/09/10 00:07:08;;;;;;;1.17;0.90;;;27.10;73.00;;;;;;5093257;28;20471;-89
2022/09/10 00:09:39;;;;;;;2.60;0.83;;;27.20;73.10;;;;;;5095705;28;20440;-85
2022/09/10 00:12:07;;;;;;;1.50;0.80;;;27.20;73.00;;;;;;5098891;28;20467;-84
2022/09/10 00:14:34;;;;;;;0.80;0.70;;;27.20;73.10;;;;;;5093365;28;20440;-83
2022/09/10 00:17:01;;;;;;;1.00;0.80;;;27.10;72.80;;;;;;5093398;28;20555;-90
2022/09/10 00:19:30;;;;;;;1.10;0.70;;;27.20;73.00;;;;;;5096908;28;20444;-90
2022/09/10 00:21:56;;;;;;;0.93;0.80;;;27.10;72.90;;;;;;5093687;28;20483;-87
2022/09/10 00:24:24;;;;;;;1.97;1.10;;;27.10;72.90;;;;;;5097577;28;20431;-83
2022/09/10 00:26:52;;;;;;;1.20;0.70;;;27.20;73.00;;;;;;5114063;28;20485;-84
2022/09/10 00:29:19;;;;;;;1.27;0.80;;;27.20;73.00;;;;;;5114174;28;20482;-84
2022/09/10 00:31:46;;;;;;;1.30;0.70;;;27.10;72.90;;;;;;5113046;28;20845;-84
2022/09/10 00:34:14;;;;;;;1.10;0.80;;;27.20;73.00;;;;;;5114065;28;20435;-85
2022/09/10 00:36:42;;;;;;;1.80;0.70;;;27.20;73.00;;;;;;5112877;28;20520;-85
2022/09/10 00:39:11;;;;;;;1.00;0.90;;;27.10;72.90;;;;;;5113909;28;20439;-84
2022/09/10 00:41:41;;;;;;;0.80;0.70;;;27.20;73.00;;;;;;5113869;28;21167;-84
2022/09/10 00:44:41;;;;;;;1.00;0.80;;;27.20;73.00;;;;;;5114028;28;20439;-86
2022/09/10 00:47:14;;;;;;;1.50;0.77;;;27.20;72.90;;;;;;5108082;28;21004;-87
2022/09/10 11:44:06;;;;;;;3.10;1.20;;;26.60;76.30;;;;;;5091550;28;20422;-88
2022/09/10 11:46:36;;;;;;;1.40;1.00;;;26.60;76.10;;;;;;5094327;28;20460;-87
2022/09/10 11:49:09;;;;;;;2.40;1.10;;;26.60;75.90;;;;;;5094556;28;20484;-87
2022/09/10 11:51:37;;;;;;;1.40;1.10;;;26.70;76.00;;;;;;5094523;28;20432;-87
2022/09/10 11:54:10;;;;;;;2.07;1.50;;;26.70;75.90;;;;;;5094365;28;20440;-87
2022/09/10 11:56:51;;;;;;;4.17;1.50;;;26.70;75.90;;;;;;5094460;28;20428;-88
2022/09/10 11:59:38;;;;;;;1.53;1.10;;;26.80;76.00;;;;;;5094131;28;20526;-87
2022/09/10 12:02:39;;;;;;;1.57;1.47;;;26.80;75.90;;;;;;5073650;28;20476;-87
2022/09/10 12:05:18;;;;;;;1.40;1.30;;;26.80;76.00;;;;;;5087636;28;20471;-87
2022/09/10 12:07:52;;;;;;;2.90;1.40;;;26.80;75.80;;;;;;5093860;28;20442;-86
2022/09/10 12:10:30;;;;;;;1.70;1.57;;;26.70;76.00;;;;;;5093866;28;20938;-87
2022/09/10 12:12:58;;;;;;;1.90;1.73;;;26.80;76.00;;;;;;5094146;28;20443;-87
2022/09/10 12:15:29;;;;;;;1.40;1.27;;;26.80;76.00;;;;;;5093939;28;20542;-87
2022/09/10 12:17:59;;;;;;;4.00;1.57;;;26.80;76.10;;;;;;5093337;28;20440;-85
2022/09/10 12:20:31;;;;;;;2.23;1.97;;;26.80;76.00;;;;;;5093785;28;20444;-86
2022/09/10 12:22:59;;;;;;;2.80;1.30;;;26.80;76.20;;;;;;5089203;28;20447;-86
2022/09/10 12:25:28;;;;;;;2.50;1.50;;;26.80;76.10;;;;;;5082340;28;20439;-86
2022/09/10 12:31:22;;;;;;;1.77;1.30;;;26.80;76.10;;;;;;5079100;28;20404;-85
2022/09/10 12:34:15;;;;;;;1.73;1.13;;;26.70;76.10;;;;;;5087684;28;20515;-85
2022/09/10 12:37:20;;;;;;;4.73;1.20;;;26.80;76.10;;;;;;5090519;28;20442;-85
2022/09/10 12:39:48;;;;;;;1.40;1.30;;;26.80;76.00;;;;;;5078949;28;20447;-85
2022/09/10 12:42:27;;;;;;;1.50;1.40;;;26.70;76.10;;;;;;5083109;28;20777;-85
2022/09/10 12:44:55;;;;;;;2.60;1.33;;;26.70;76.00;;;;;;5086902;28;20481;-85
2022/09/10 12:47:51;;;;;;;1.20;1.10;;;26.70;76.00;;;;;;5077848;28;20472;-85
2022/09/10 12:50:37;;;;;;;1.83;1.20;;;26.80;75.90;;;;;;5079889;28;20986;-85
2022/09/10 12:53:34;;;;;;;1.10;1.00;;;26.70;75.90;;;;;;5084611;28;20431;-88
2022/09/10 12:56:06;;;;;;;1.40;1.30;;;26.70;76.80;;;;;;5077881;28;20432;-87
2022/09/10 12:58:54;;;;;;;5.50;1.70;;;26.70;76.00;;;;;;5096287;28;20452;-88
2022/09/10 13:01:38;;;;;;;1.57;1.30;;;26.80;76.10;;;;;;5104774;28;20498;-88
2022/09/10 13:04:28;;;;;;;2.00;1.80;;;26.70;75.90;;;;;;5111812;28;20799;-88
2022/09/10 13:06:59;;;;;;;2.70;1.30;;;26.80;76.00;;;;;;5093728;28;20801;-88
2022/09/10 13:09:31;;;;;;;4.70;1.30;;;26.80;76.10;;;;;;5093442;28;20986;-89
2022/09/10 13:12:02;;;;;;;1.30;1.20;;;26.80;76.10;;;;;;5113291;28;20431;-88
2022/09/10 13:14:32;;;;;;;1.33;1.23;;;26.70;76.90;;;;;;5113967;28;20470;-89
2022/09/10 13:16:59;;;;;;;3.93;1.10;;;26.70;76.00;;;;;;5114123;28;20436;-88
2022/09/10 13:19:54;;;;;;;1.83;1.73;;;26.70;76.00;;;;;;5113879;28;20442;-86
2022/09/10 13:22:48;;;;;;;1.23;1.13;;;26.80;76.00;;;;;;5113974;28;20442;-86
2022/09/10 13:25:31;;;;;;;1.33;1.20;;;26.80;76.00;;;;;;5113267;28;20530;-86
2022/09/10 13:27:58;;;;;;;1.50;1.40;;;26.80;76.10;;;;;;5117719;28;20434;-90
2022/09/10 13:30:26;;;;;;;2.10;1.30;;;26.50;76.10;;;;;;5113644;28;20904;-91
2022/09/10 13:32:55;;;;;;;3.57;1.37;;;26.70;76.10;;;;;;5114008;28;20537;-88
2022/09/10 13:35:44;;;;;;;1.27;1.17;;;26.80;76.20;;;;;;5115840;28;20473;-90
2022/09/10 14:31:53;;;;;;;4.30;1.90;;;26.60;77.00;;;;;;5093115;28;20816;-86
2022/09/10 14:34:31;;;;;;;1.60;1.30;;;26.60;77.10;;;;;;5057418;28;20844;-86
2022/09/10 14:36:58;;;;;;;3.00;1.80;;;26.60;77.00;;;;;;5076366;28;20471;-85
2022/09/10 14:39:26;;;;;;;4.03;1.67;;;26.60;76.90;;;;;;5076214;28;20437;-92
2022/09/10 14:42:10;;;;;;;1.93;1.50;;;26.60;76.70;;;;;;5096504;28;20448;-88
2022/09/10 14:45:29;;;;;;;2.63;1.80;;;26.70;76.80;;;;;;5088758;28;21061;-89
2022/09/10 14:47:56;;;;;;;1.17;1.07;;;26.70;76.90;;;;;;4994287;28;20523;-86
2022/09/10 14:50:30;;;;;;;3.20;1.40;;;26.70;77.00;;;;;;4994166;28;20484;-89
2022/09/10 14:52:58;;;;;;;1.70;1.60;;;26.70;76.70;;;;;;5033924;28;20465;-86
2022/09/10 14:55:27;;;;;;;1.97;1.30;;;26.70;76.60;;;;;;5075275;28;20437;-87
2022/09/10 14:57:56;;;;;;;3.80;1.60;;;26.70;76.50;;;;;;5078998;28;20452;-86
2022/09/10 15:00:24;;;;;;;4.20;1.70;;;26.70;76.70;;;;;;5095795;28;20463;-87
2022/09/10 15:02:54;;;;;;;1.83;1.67;;;26.70;76.80;;;;;;5095608;28;20475;-88
2022/09/10 15:05:21;;;;;;;3.20;2.33;;;26.70;76.90;;;;;;5095436;28;20451;-88
2022/09/10 15:07:49;;;;;;;5.00;2.80;;;26.70;76.70;;;;;;5095531;28;20551;-86
2022/09/10 15:10:16;;;;;;;7.90;3.33;;;26.70;78.00;;;;;;5094972;28;20498;-87
2022/09/10 15:12:48;;;;;;;5.80;3.67;;;26.60;79.20;;;;;;5095008;28;20531;-85
2022/09/10 15:15:18;;;;;;;3.73;3.43;;;26.50;79.60;;;;;;5094926;28;20499;-85
2022/09/10 15:17:45;;;;;;;3.13;2.27;;;26.50;79.50;;;;;;5094656;28;21145;-85
2022/09/10 15:20:15;;;;;;;2.63;2.17;;;26.60;79.20;;;;;;5094527;28;21160;-85
2022/09/10 15:22:44;;;;;;;4.63;2.47;;;26.60;78.80;;;;;;5094755;28;21051;-86
2022/09/10 15:25:27;;;;;;;2.07;1.97;;;26.60;78.40;;;;;;5094727;28;20448;-85
2022/09/10 15:27:54;;;;;;;2.80;1.93;;;26.70;78.20;;;;;;5095068;28;20436;-85
2022/09/10 15:30:22;;;;;;;4.37;2.43;;;26.70;78.10;;;;;;5094768;28;20486;-85
2022/09/10 15:32:50;;;;;;;2.87;2.60;;;26.70;78.00;;;;;;5102892;28;20573;-85
2022/09/10 15:35:17;;;;;;;5.47;1.80;;;26.70;78.00;;;;;;5115495;28;20449;-86
2022/09/10 15:37:44;;;;;;;4.70;1.60;;;26.70;77.90;;;;;;5115680;28;20533;-87
2022/09/10 15:40:11;;;;;;;1.47;1.37;;;26.70;77.80;;;;;;5115422;28;20439;-86
2022/09/10 15:42:40;;;;;;;3.83;2.20;;;26.70;77.80;;;;;;5115481;28;20526;-86
2022/09/10 15:45:08;;;;;;;5.60;2.00;;;26.70;77.70;;;;;;5115049;28;20439;-86
2022/09/10 15:47:35;;;;;;;1.70;1.60;;;26.70;77.60;;;;;;5115647;28;20461;-86
2022/09/10 15:50:02;;;;;;;1.67;1.50;;;26.70;77.60;;;;;;5115270;28;20513;-87
2022/09/10 15:52:29;;;;;;;2.70;1.80;;;26.70;77.60;;;;;;5115470;28;20450;-86
2022/09/10 15:54:56;;;;;;;1.93;1.70;;;26.70;78.30;;;;;;5114842;28;21017;-87
2022/09/10 15:57:23;;;;;;;2.63;1.33;;;26.70;77.40;;;;;;5115260;28;20933;-86
2022/09/10 15:59:53;;;;;;;1.63;1.53;;;26.70;77.40;;;;;;5115058;28;20494;-85
2022/09/10 16:02:19;;;;;;;5.17;1.80;;;26.70;77.40;;;;;;5115322;28;20447;-86
2022/09/10 16:04:47;;;;;;;1.63;1.53;;;26.70;77.40;;;;;;5114948;28;20453;-85
2022/09/10 16:07:14;;;;;;;4.20;1.90;;;26.70;77.40;;;;;;5115077;28;20958;-85
2022/09/10 16:09:42;;;;;;;1.77;1.50;;;26.70;77.40;;;;;;5115173;28;20977;-86
2022/09/10 16:12:09;;;;;;;2.40;1.40;;;26.70;77.50;;;;;;5114899;28;20448;-86
2022/09/10 16:14:36;;;;;;;1.93;1.30;;;26.70;77.10;;;;;;5114825;28;20439;-86
2022/09/10 16:17:09;;;;;;;2.60;1.87;;;26.70;77.10;;;;;;5114867;28;20459;-86
2022/09/10 16:19:36;;;;;;;1.63;1.53;;;26.70;77.10;;;;;;5114718;28;20514;-86
2022/09/10 16:22:03;;;;;;;2.03;1.77;;;26.70;77.20;;;;;;5114327;28;20913;-86
2022/09/10 16:24:30;;;;;;;2.13;1.50;;;26.70;77.10;;;;;;5114729;28;20613;-85
2022/09/10 16:26:56;;;;;;;2.03;1.43;;;26.70;77.10;;;;;;5114312;28;20939;-85
2022/09/10 16:29:23;;;;;;;2.33;1.70;;;26.70;78.00;;;;;;5114432;28;20479;-85
2022/09/10 16:31:50;;;;;;;1.40;1.30;;;26.70;77.10;;;;;;5114264;28;20435;-86
2022/09/10 16:34:20;;;;;;;2.97;1.70;;;26.70;77.10;;;;;;5114705;28;20439;-86
2022/09/10 16:36:49;;;;;;;1.23;1.13;;;26.70;77.10;;;;;;5115061;28;20454;-86
2022/09/10 16:39:17;;;;;;;2.73;1.47;;;26.70;77.10;;;;;;5114223;28;20456;-87
2022/09/10 16:41:46;;;;;;;2.40;1.40;;;26.70;77.00;;;;;;5114265;28;20446;-86
2022/09/10 16:44:14;;;;;;;1.33;1.23;;;26.70;77.00;;;;;;5114077;28;20455;-86
2022/09/10 16:46:42;;;;;;;1.97;1.87;;;26.70;77.00;;;;;;5114463;28;20441;-86
2022/09/10 16:49:11;;;;;;;1.53;1.43;;;26.70;77.00;;;;;;5114214;28;20431;-86
2022/09/10 16:51:40;;;;;;;2.07;1.50;;;26.70;77.00;;;;;;5114368;28;20809;-86
2022/09/10 16:54:08;;;;;;;1.80;1.70;;;26.70;76.90;;;;;;5114352;28;20496;-86
2022/09/10 16:56:36;;;;;;;2.50;1.80;;;26.70;77.00;;;;;;5114323;28;20442;-86
2022/09/10 16:59:06;;;;;;;1.50;1.40;;;26.70;77.80;;;;;;5116086;28;20439;-85
2022/09/10 17:01:33;;;;;;;1.50;1.40;;;26.70;77.10;;;;;;5105901;28;20818;-86
2022/09/10 17:04:02;;;;;;;1.53;1.43;;;26.70;76.90;;;;;;5114200;28;20951;-86
2022/09/10 17:06:29;;;;;;;1.40;1.30;;;26.70;77.00;;;;;;5114125;28;20802;-86
2022/09/10 17:08:58;;;;;;;1.50;1.37;;;26.70;77.00;;;;;;5114174;28;20441;-86
2022/09/10 17:11:27;;;;;;;1.70;1.00;;;26.70;77.00;;;;;;5113758;28;20491;-85
2022/09/10 17:13:55;;;;;;;2.13;1.30;;;26.70;77.00;;;;;;5114240;28;20534;-86
2022/09/10 17:16:25;;;;;;;1.33;1.23;;;26.70;77.00;;;;;;5113966;28;20439;-85
2022/09/10 17:18:56;;;;;;;1.40;1.30;;;26.70;77.00;;;;;;5113819;28;20443;-86
2022/09/10 17:21:24;;;;;;;1.40;1.30;;;26.70;76.90;;;;;;5113724;28;20434;-86
2022/09/10 17:23:51;;;;;;;1.43;1.33;;;26.70;77.00;;;;;;5113988;28;20449;-86
2022/09/10 17:26:19;;;;;;;1.57;1.43;;;26.70;76.90;;;;;;5113809;28;20431;-86
2022/09/10 17:28:52;;;;;;;1.60;1.40;;;26.70;76.90;;;;;;5113794;28;20478;-86
2022/09/10 17:31:19;;;;;;;1.33;1.23;;;26.70;76.90;;;;;;5113860;28;20841;-86
2022/09/10 17:33:47;;;;;;;1.30;1.20;;;26.70;76.90;;;;;;5116685;28;20471;-86
2022/09/10 17:36:14;;;;;;;1.37;1.27;;;26.70;77.70;;;;;;5118069;28;20446;-86
2022/09/10 17:38:40;;;;;;;1.30;1.20;;;26.70;76.80;;;;;;5117713;28;20503;-86
2022/09/10 17:41:07;;;;;;;1.20;1.10;;;26.70;76.80;;;;;;5117871;28;20447;-87
2022/09/10 17:43:37;;;;;;;1.50;1.40;;;26.70;76.60;;;;;;5117940;28;20461;-86
2022/09/10 17:46:04;;;;;;;2.23;1.50;;;26.70;76.60;;;;;;5117850;28;20461;-86
2022/09/10 17:48:31;;;;;;;1.47;1.37;;;26.70;76.60;;;;;;5117688;28;20443;-86
2022/09/10 17:50:59;;;;;;;1.63;1.37;;;26.70;76.70;;;;;;5117588;28;20593;-86
2022/09/10 17:53:26;;;;;;;1.20;1.10;;;26.70;76.70;;;;;;5117810;28;20439;-85
2022/09/10 17:55:53;;;;;;;1.73;1.40;;;26.70;76.70;;;;;;5117674;28;20435;-85
2022/09/10 17:58:21;;;;;;;1.60;1.50;;;26.70;76.60;;;;;;5117608;28;20441;-86
2022/09/10 18:00:49;;;;;;;2.13;1.30;;;26.70;76.50;;;;;;5117612;28;20435;-86
2022/09/10 18:03:16;;;;;;;1.40;1.30;;;26.70;76.60;;;;;;5117504;28;20775;-85
2022/09/10 18:05:44;;;;;;;2.10;1.47;;;26.70;76.50;;;;;;5117243;28;20541;-86
2022/09/10 18:08:12;;;;;;;1.43;1.13;;;26.70;76.50;;;;;;5118132;28;20445;-86
2022/09/10 18:10:39;;;;;;;1.63;1.20;;;26.70;76.40;;;;;;5117323;28;20968;-86
2022/09/10 18:13:06;;;;;;;1.20;1.10;;;26.70;76.40;;;;;;5117337;28;20828;-85
2022/09/10 18:15:33;;;;;;;1.30;1.20;;;26.70;76.30;;;;;;5117154;28;20441;-85
2022/09/10 18:18:01;;;;;;;1.57;1.47;;;26.60;76.20;;;;;;5117155;28;20855;-86
2022/09/10 18:20:29;;;;;;;1.30;1.20;;;26.70;76.30;;;;;;5117354;28;20523;-86
2022/09/10 18:22:57;;;;;;;1.33;1.23;;;26.70;76.20;;;;;;5116991;28;20865;-86
2022/09/10 18:25:26;;;;;;;1.40;1.30;;;26.70;76.30;;;;;;5117005;28;20441;-86
2022/09/10 18:27:54;;;;;;;1.10;1.00;;;26.70;76.30;;;;;;5116696;28;20526;-86
2022/09/10 18:30:20;;;;;;;1.30;1.20;;;26.70;76.30;;;;;;5116878;28;20521;-87
2022/09/10 18:32:49;;;;;;;2.10;1.30;;;26.70;76.20;;;;;;5116676;28;20468;-87
2022/09/10 18:35:18;;;;;;;1.20;1.10;;;26.70;77.10;;;;;;5117125;28;20466;-87
2022/09/10 18:37:48;;;;;;;1.20;1.10;;;26.70;76.30;;;;;;5116633;28;20443;-85
2022/09/10 18:40:16;;;;;;;1.43;1.33;;;26.70;76.30;;;;;;5117082;28;20438;-85
2022/09/10 18:42:43;;;;;;;1.40;1.30;;;26.70;76.30;;;;;;5116920;28;20542;-85
2022/09/10 18:45:10;;;;;;;1.40;1.30;;;26.70;76.20;;;;;;5116096;28;20453;-86
2022/09/10 18:47:37;;;;;;;1.60;1.20;;;26.70;76.20;;;;;;5116550;28;20440;-85
2022/09/10 18:50:05;;;;;;;1.20;1.10;;;26.70;76.20;;;;;;5116306;28;20477;-85
2022/09/10 18:52:35;;;;;;;1.20;1.10;;;26.60;76.20;;;;;;5116504;28;20479;-86
2022/09/10 18:55:02;;;;;;;1.33;1.23;;;26.70;76.20;;;;;;5116307;28;20922;-85
2022/09/10 18:57:30;;;;;;;1.27;1.17;;;26.70;76.20;;;;;;5116195;28;20943;-86
2022/09/10 18:59:57;;;;;;;1.50;1.40;;;26.70;76.20;;;;;;5116312;28;20435;-86
2022/09/10 19:02:24;;;;;;;1.40;1.20;;;26.70;76.20;;;;;;5116443;28;20431;-86
2022/09/10 19:05:01;;;;;;;1.30;1.20;;;26.60;76.10;;;;;;5116328;28;20435;-86
2022/09/10 19:07:27;;;;;;;1.30;1.20;;;26.70;76.10;;;;;;5116222;28;20870;-86
2022/09/10 19:09:56;;;;;;;1.30;1.20;;;26.60;76.20;;;;;;5115935;28;20434;-86
2022/09/10 19:12:22;;;;;;;1.53;1.43;;;26.60;76.20;;;;;;5116284;28;20442;-86
2022/09/10 19:14:49;;;;;;;1.20;1.10;;;26.70;76.20;;;;;;5116265;28;20457;-86
2022/09/10 19:17:16;;;;;;;1.70;1.60;;;26.70;76.20;;;;;;5116102;28;20435;-86
2022/09/10 19:19:43;;;;;;;1.33;1.23;;;26.70;76.20;;;;;;5115856;28;20459;-86
2022/09/10 19:22:10;;;;;;;1.17;1.07;;;26.70;76.20;;;;;;5115851;28;21035;-86
2022/09/10 19:24:37;;;;;;;1.50;1.40;;;26.60;76.10;;;;;;5116016;28;20436;-86
2022/09/10 19:27:05;;;;;;;1.30;1.20;;;26.60;76.10;;;;;;5115793;28;20443;-85
2022/09/10 19:29:32;;;;;;;1.40;1.30;;;26.60;76.10;;;;;;5115492;28;20956;-86
2022/09/10 19:31:59;;;;;;;1.70;1.60;;;26.60;76.00;;;;;;5115683;28;20486;-86
2022/09/10 19:34:26;;;;;;;1.20;1.10;;;26.60;76.00;;;;;;5116080;28;20847;-85
2022/09/10 19:36:53;;;;;;;1.40;1.30;;;26.60;76.00;;;;;;5115669;28;20447;-85
2022/09/10 19:39:20;;;;;;;1.40;1.30;;;26.60;76.10;;;;;;5115535;28;20949;-86
2022/09/10 19:41:49;;;;;;;1.53;1.43;;;26.60;76.10;;;;;;5115847;28;20426;-86
2022/09/10 19:44:17;;;;;;;1.63;1.53;;;26.60;76.00;;;;;;5115691;28;20517;-86
2022/09/10 19:46:44;;;;;;;1.33;1.23;;;26.60;76.10;;;;;;5115626;28;20475;-86
2022/09/10 19:49:11;;;;;;;1.23;1.13;;;26.60;76.00;;;;;;5115367;28;20437;-86
2022/09/10 19:51:39;;;;;;;1.63;1.53;;;26.60;75.90;;;;;;5115393;28;20856;-86
2022/09/10 19:54:06;;;;;;;1.60;1.50;;;26.60;76.80;;;;;;5115379;28;20500;-85
2022/09/10 19:56:35;;;;;;;1.27;1.17;;;26.60;76.10;;;;;;5105876;28;20480;-85
2022/09/10 19:59:07;;;;;;;1.47;1.37;;;26.60;76.10;;;;;;5115152;28;20971;-85
2022/09/10 20:01:36;;;;;;;1.60;1.50;;;26.60;76.10;;;;;;5115238;28;20479;-85
2022/09/10 20:04:05;;;;;;;1.30;1.20;;;26.60;76.00;;;;;;5115021;28;20439;-85
2022/09/10 20:06:33;;;;;;;1.50;1.40;;;26.60;75.90;;;;;;5114889;28;20814;-86
2022/09/10 20:09:00;;;;;;;1.40;1.30;;;26.60;76.10;;;;;;5115093;28;20545;-85
2022/09/10 20:11:30;;;;;;;1.27;1.17;;;26.60;76.00;;;;;;5114839;28;20474;-86
2022/09/10 20:13:58;;;;;;;1.40;1.27;;;26.60;75.90;;;;;;5114898;28;20945;-86
2022/09/10 20:16:26;;;;;;;1.57;1.47;;;26.60;75.90;;;;;;5114805;28;20441;-86
2022/09/10 20:18:55;;;;;;;1.40;1.30;;;26.60;75.90;;;;;;5114859;28;20500;-86
2022/09/10 20:21:24;;;;;;;1.23;1.13;;;26.60;76.00;;;;;;5114577;28;20431;-86
2022/09/10 20:23:54;;;;;;;1.47;1.37;;;26.60;76.00;;;;;;5114574;28;20948;-86
2022/09/10 20:26:23;;;;;;;1.77;1.67;;;26.60;76.00;;;;;;5114726;28;20534;-86
2022/09/10 20:28:52;;;;;;;1.20;1.10;;;26.60;76.00;;;;;;5114429;28;20463;-86
2022/09/10 20:31:20;;;;;;;1.53;1.43;;;26.60;76.00;;;;;;5114322;28;21016;-86
2022/09/10 20:33:48;;;;;;;1.70;1.60;;;26.60;76.10;;;;;;5114167;28;20978;-86
2022/09/10 20:36:17;;;;;;;1.60;1.50;;;26.60;76.00;;;;;;5114742;28;20449;-86
2022/09/10 20:38:44;;;;;;;1.20;1.10;;;26.60;76.00;;;;;;5114654;28;20438;-86
2022/09/10 20:41:11;;;;;;;1.60;1.37;;;26.60;75.90;;;;;;5114366;28;20427;-86
2022/09/10 20:43:39;;;;;;;1.57;1.47;;;26.60;75.90;;;;;;5114335;28;20430;-86
2022/09/10 20:46:12;;;;;;;1.50;1.40;;;26.60;75.90;;;;;;5115342;28;20434;-86
2022/09/10 20:48:39;;;;;;;2.33;1.77;;;26.60;75.90;;;;;;5114345;28;20444;-86
2022/09/10 20:51:07;;;;;;;1.50;1.40;;;26.60;75.90;;;;;;5114164;28;20535;-86
2022/09/10 20:53:37;;;;;;;1.50;1.40;;;26.60;75.90;;;;;;5114439;28;20451;-86
2022/09/10 20:56:05;;;;;;;1.43;1.30;;;26.60;75.90;;;;;;5114068;28;20438;-86
2022/09/10 20:58:34;;;;;;;1.67;1.57;;;26.50;75.80;;;;;;5114101;28;20458;-86
2022/09/10 21:01:06;;;;;;;1.63;1.53;;;26.50;75.80;;;;;;5114318;28;20447;-86
2022/09/10 21:03:33;;;;;;;1.20;1.10;;;26.60;75.80;;;;;;5114186;28;20437;-87
2022/09/10 21:06:00;;;;;;;5.23;1.70;;;26.60;75.70;;;;;;5113824;28;20443;-86
2022/09/10 21:08:28;;;;;;;1.70;1.60;;;26.50;76.80;;;;;;5113983;28;20794;-86
2022/09/10 21:11:01;;;;;;;3.40;2.10;;;26.60;75.70;;;;;;5113942;28;20486;-86
2022/09/10 21:13:28;;;;;;;2.10;1.43;;;26.60;75.90;;;;;;5114244;28;20814;-86
2022/09/10 21:15:55;;;;;;;4.70;1.63;;;26.50;76.00;;;;;;5114125;28;20955;-88
2022/09/10 21:18:21;;;;;;;1.67;1.57;;;26.60;76.20;;;;;;5113968;28;20437;-86
2022/09/10 21:20:52;;;;;;;2.00;1.67;;;26.60;76.30;;;;;;5126513;28;20467;-85
2022/09/10 21:23:19;;;;;;;2.70;1.73;;;26.60;76.20;;;;;;5114605;28;20514;-84
2022/09/10 21:25:51;;;;;;;2.03;1.30;;;26.60;76.10;;;;;;5113643;28;20435;-85
2022/09/10 21:28:19;;;;;;;1.17;1.07;;;26.60;76.20;;;;;;5113666;28;20995;-85
2022/09/10 21:30:46;;;;;;;3.70;1.10;;;26.60;76.30;;;;;;5113546;28;20803;-86
2022/09/10 21:33:14;;;;;;;4.37;1.70;;;26.60;76.20;;;;;;5113545;28;21003;-85
2022/09/10 21:35:40;;;;;;;1.93;1.30;;;26.60;76.20;;;;;;5096153;28;20452;-86
2022/09/10 21:38:08;;;;;;;2.30;1.60;;;26.50;76.20;;;;;;5093343;28;20433;-86
2022/09/10 21:40:35;;;;;;;1.30;1.20;;;26.50;76.10;;;;;;5093422;28;20528;-87
2022/09/10 21:43:03;;;;;;;1.23;1.13;;;26.60;76.40;;;;;;5093394;28;20439;-86
2022/09/10 21:45:31;;;;;;;3.27;1.60;;;26.60;76.20;;;;;;5093660;28;20440;-86
2022/09/10 21:47:57;;;;;;;1.50;1.40;;;26.60;76.30;;;;;;5097165;28;20959;-86
2022/09/10 21:50:24;;;;;;;1.70;1.50;;;26.60;76.20;;;;;;5114065;28;20526;-87
2022/09/10 21:52:51;;;;;;;1.30;1.20;;;26.60;76.30;;;;;;5114010;28;20573;-86
2022/09/10 21:55:18;;;;;;;1.43;1.33;;;26.60;76.30;;;;;;5113609;28;20920;-87
2022/09/10 21:57:45;;;;;;;2.43;1.87;;;26.60;76.30;;;;;;5113641;28;20439;-87
2022/09/10 22:00:14;;;;;;;1.43;1.33;;;26.50;76.20;;;;;;5113794;28;20522;-87
2022/09/10 22:02:43;;;;;;;2.00;1.20;;;26.60;76.20;;;;;;5106723;28;20466;-85
2022/09/10 22:05:09;;;;;;;2.07;1.40;;;26.60;76.30;;;;;;5093381;28;20518;-86
2022/09/10 22:07:36;;;;;;;2.03;1.63;;;26.60;76.20;;;;;;5093089;28;20442;-87
2022/09/10 22:10:06;;;;;;;1.40;1.30;;;26.60;76.20;;;;;;5092851;28;20453;-87
2022/09/10 22:12:33;;;;;;;1.30;1.20;;;26.60;76.30;;;;;;5085483;28;20485;-88
2022/09/10 22:15:00;;;;;;;1.60;1.50;;;26.60;77.00;;;;;;5093069;28;20957;-85
2022/09/10 22:17:26;;;;;;;2.90;1.20;;;26.60;77.10;;;;;;5093010;28;20816;-87
2022/09/10 22:19:55;;;;;;;1.30;1.20;;;26.60;76.30;;;;;;5109910;28;20530;-87
2022/09/10 22:22:22;;;;;;;1.40;1.30;;;26.60;76.30;;;;;;5117074;28;20447;-87
2022/09/10 22:24:49;;;;;;;1.37;1.20;;;26.60;76.10;;;;;;5116891;28;20983;-87
2022/09/10 22:27:16;;;;;;;1.23;1.13;;;26.60;76.20;;;;;;5118149;28;20933;-87
2022/09/10 22:29:44;;;;;;;1.40;1.30;;;26.60;76.20;;;;;;5116372;28;20450;-87
2022/09/10 22:32:11;;;;;;;1.33;1.23;;;26.70;77.10;;;;;;5096142;28;21002;-87
2022/09/10 22:34:38;;;;;;;2.47;1.33;;;26.70;76.10;;;;;;5096710;28;20428;-87
2022/09/10 22:37:06;;;;;;;1.50;1.40;;;26.60;76.00;;;;;;5096385;28;20525;-86
2022/09/10 22:39:35;;;;;;;1.13;1.03;;;26.60;76.10;;;;;;5096196;28;20478;-86
2022/09/10 22:42:04;;;;;;;1.40;1.30;;;26.60;76.10;;;;;;5096266;28;20805;-86
2022/09/10 22:44:30;;;;;;;1.30;1.20;;;26.70;76.10;;;;;;5096349;28;20439;-86
2022/09/10 22:46:58;;;;;;;1.53;1.43;;;26.60;76.10;;;;;;5096054;28;20456;-86
2022/09/10 22:49:25;;;;;;;3.40;1.30;;;26.70;76.10;;;;;;5095868;28;20440;-87
2022/09/10 22:51:52;;;;;;;1.30;1.20;;;26.70;76.10;;;;;;5095854;28;20489;-88
2022/09/10 22:54:21;;;;;;;2.20;1.10;;;26.60;76.10;;;;;;5096216;28;20435;-88
2022/09/10 22:56:48;;;;;;;1.40;1.30;;;26.60;76.10;;;;;;5096173;28;20527;-88
2022/09/10 22:59:15;;;;;;;1.33;1.23;;;26.60;76.00;;;;;;5095842;28;20446;-88
2022/09/10 23:01:46;;;;;;;2.90;1.20;;;26.60;76.10;;;;;;5095779;28;21024;-88
2022/09/10 23:04:13;;;;;;;1.20;1.10;;;26.60;76.80;;;;;;5096129;28;20482;-88
2022/09/10 23:06:40;;;;;;;1.50;1.20;;;26.60;76.00;;;;;;5095910;28;20438;-89
2022/09/10 23:09:09;;;;;;;2.33;1.40;;;26.60;76.00;;;;;;5095689;28;20432;-87
2022/09/10 23:11:42;;;;;;;1.50;1.40;;;26.70;76.80;;;;;;5096723;28;20482;-85
2022/09/10 23:14:12;;;;;;;1.60;1.50;;;26.70;76.00;;;;;;5096522;28;20564;-87
2022/09/10 23:16:41;;;;;;;1.37;1.27;;;26.60;75.90;;;;;;5095826;28;20436;-87
2022/09/10 23:19:12;;;;;;;1.20;1.10;;;26.60;75.90;;;;;;5095594;28;20443;-87
2022/09/10 23:21:42;;;;;;;3.43;1.50;;;26.60;75.80;;;;;;5095761;28;20440;-87
2022/09/10 23:24:11;;;;;;;1.50;1.40;;;26.60;75.90;;;;;;5095428;28;20533;-87
2022/09/10 23:26:39;;;;;;;1.43;1.33;;;26.60;75.80;;;;;;5095036;28;20935;-87
2022/09/10 23:29:06;;;;;;;1.30;1.20;;;26.70;75.80;;;;;;5096255;28;20436;-85
2022/09/10 23:31:36;;;;;;;2.23;1.20;;;26.60;75.70;;;;;;5095111;28;20490;-86
2022/09/10 23:34:04;;;;;;;1.27;1.17;;;26.70;75.80;;;;;;5095144;28;20471;-85
2022/09/10 23:36:33;;;;;;;1.47;1.37;;;26.60;75.70;;;;;;5095101;28;20939;-85
2022/09/10 23:39:01;;;;;;;1.40;1.07;;;26.60;75.80;;;;;;5094946;28;20439;-86
2022/09/10 23:41:28;;;;;;;1.30;1.20;;;26.60;75.70;;;;;;5095261;28;20444;-86
2022/09/10 23:43:57;;;;;;;1.33;1.23;;;26.60;75.70;;;;;;5095276;28;20787;-86
2022/09/10 23:46:24;;;;;;;1.30;1.20;;;26.70;75.60;;;;;;5095182;28;20523;-86
2022/09/10 23:48:51;;;;;;;1.40;1.30;;;26.70;75.50;;;;;;5094995;28;20802;-86
2022/09/10 23:51:20;;;;;;;1.10;1.00;;;26.60;75.60;;;;;;5094929;28;20443;-86
2022/09/10 23:53:48;;;;;;;1.30;1.20;;;26.60;75.50;;;;;;5094955;28;20444;-87
2022/09/10 23:56:17;;;;;;;2.03;1.10;;;26.60;75.50;;;;;;5074651;28;20447;-87
2022/09/10 23:58:44;;;;;;;1.20;1.10;;;26.60;75.50;;;;;;5074359;28;20457;-86
